Time;durP1;ratioP1;P1;durP2;ratioP2;P2;SDS_P1;SDS_P2;PMS_P1;PMS_P2;Temp;Humidity;BMP_temperature;BMP_pressure;BME280_temperature;BME280_humidity;BME280_pressure;Samples;Min_cycle;Max_cycle;Signal;HPM_P1;HPM_P2
2022/05/31 00:02:06;;;;;;;4.50;3.40;;;;;;;15.02;75.08;96418.94;5092963;28;20488;-62
2022/05/31 00:04:33;;;;;;;4.05;3.65;;;;;;;15.00;75.00;96420.00;5092768;28;20024;-64
2022/05/31 00:06:59;;;;;;;6.20;3.65;;;;;;;15.00;75.79;96414.72;5092806;28;20019;-63
2022/05/31 00:09:25;;;;;;;7.38;4.20;;;;;;;14.96;75.06;96410.56;5093069;28;20051;-62
2022/05/31 00:11:51;;;;;;;6.75;3.85;;;;;;;14.84;76.12;96412.97;5092727;28;20466;-64
2022/05/31 00:14:17;;;;;;;7.15;3.88;;;;;;;14.82;75.02;96416.63;5092753;28;20028;-62
2022/05/31 00:16:45;;;;;;;6.35;3.90;;;;;;;14.76;75.63;96416.03;5092794;28;20035;-64
2022/05/31 00:19:12;;;;;;;6.20;3.63;;;;;;;14.76;75.84;96420.44;5092717;28;20074;-62
2022/05/31 00:21:45;;;;;;;6.00;3.70;;;;;;;14.79;75.66;96428.19;5092752;28;20016;-67
2022/05/31 00:24:15;;;;;;;5.28;3.30;;;;;;;14.75;75.40;96421.38;5092774;28;20031;-63
2022/05/31 00:26:42;;;;;;;4.60;4.10;;;;;;;14.73;75.34;96426.72;5096518;28;20023;-65
2022/05/31 00:29:09;;;;;;;4.53;3.60;;;;;;;14.71;75.56;96423.31;5096380;28;20028;-64
2022/05/31 00:31:37;;;;;;;7.95;4.03;;;;;;;14.64;75.69;96422.84;5096454;28;20027;-62
2022/05/31 00:34:04;;;;;;;6.00;3.45;;;;;;;14.68;76.07;96428.75;5096404;28;20060;-65
2022/05/31 00:36:31;;;;;;;3.97;3.35;;;;;;;14.63;76.43;96425.53;5096157;28;20020;-63
2022/05/31 00:38:57;;;;;;;5.70;3.92;;;;;;;14.63;76.14;96431.63;5096105;28;20031;-66
2022/05/31 00:41:23;;;;;;;7.40;4.30;;;;;;;14.65;76.27;96428.91;5096144;28;20523;-63
2022/05/31 00:44:02;;;;;;;3.75;3.40;;;;;;;14.69;76.08;96425.19;5096109;28;20028;-65
2022/05/31 00:46:47;;;;;;;4.53;3.50;;;;;;;14.69;76.19;96427.81;5094941;28;20032;-62
2022/05/31 00:49:26;;;;;;;4.30;3.63;;;;;;;14.69;76.13;96430.44;5095697;28;20028;-65
2022/05/31 00:51:55;;;;;;;5.00;3.88;;;;;;;14.71;75.54;96438.25;5096019;28;20028;-63
2022/05/31 00:54:24;;;;;;;7.00;4.30;;;;;;;14.63;75.92;96439.53;5095948;28;20114;-62
2022/05/31 00:56:52;;;;;;;5.38;3.90;;;;;;;14.68;77.30;96443.69;5094508;28;20424;-63
2022/05/31 00:59:22;;;;;;;4.90;4.40;;;;;;;14.66;77.65;96444.63;5095761;28;20477;-63
2022/05/31 01:01:51;;;;;;;4.93;3.95;;;;;;;14.72;77.21;96453.13;5095730;28;20020;-62
2022/05/31 01:04:20;;;;;;;4.05;3.10;;;;;;;14.66;76.92;96449.91;5095574;28;20390;-65
2022/05/31 01:06:45;;;;;;;4.97;3.72;;;;;;;14.67;76.91;96461.28;5095646;28;20027;-64
2022/05/31 01:09:11;;;;;;;5.60;4.47;;;;;;;14.67;76.83;96466.56;5095634;28;20024;-66
2022/05/31 01:11:39;;;;;;;6.43;4.13;;;;;;;14.61;77.63;96464.25;5095613;28;20461;-64
2022/05/31 01:14:05;;;;;;;8.77;4.50;;;;;;;14.51;78.29;96469.19;5095598;28;20351;-63
2022/05/31 01:16:31;;;;;;;5.32;4.82;;;;;;;14.43;78.30;96466.97;5095444;28;20111;-62
2022/05/31 01:18:57;;;;;;;5.65;4.32;;;;;;;14.42;78.63;96459.16;5095404;28;20095;-65
2022/05/31 01:21:23;;;;;;;6.50;4.18;;;;;;;14.42;78.89;96464.44;5095484;28;20025;-62
2022/05/31 01:24:00;;;;;;;5.78;3.85;;;;;;;14.43;77.77;96468.75;5095368;28;20027;-66
2022/05/31 01:26:35;;;;;;;7.43;4.13;;;;;;;14.42;77.76;96465.25;5093979;28;20020;-64
2022/05/31 01:29:43;;;;;;;5.05;4.53;;;;;;;14.44;78.45;96467.81;5095399;28;20060;-64
2022/05/31 01:32:13;;;;;;;5.05;4.15;;;;;;;14.48;78.29;96467.56;5092287;28;20107;-62
2022/05/31 01:34:41;;;;;;;5.20;4.20;;;;;;;14.49;78.01;96468.41;5095271;28;20028;-65
2022/05/31 01:37:07;;;;;;;8.35;4.57;;;;;;;14.44;78.55;96457.28;5094081;28;20039;-62
2022/05/31 01:39:58;;;;;;;8.95;4.70;;;;;;;14.42;78.68;96467.06;5095059;28;20039;-64
2022/05/31 01:42:36;;;;;;;7.30;4.13;;;;;;;14.33;79.13;96465.78;5093849;28;20087;-66
2022/05/31 01:45:11;;;;;;;5.28;3.85;;;;;;;14.30;78.72;96458.88;5095141;28;20036;-65
2022/05/31 01:47:36;;;;;;;7.57;4.03;;;;;;;14.31;78.19;96470.25;5094930;28;20028;-63
2022/05/31 01:50:05;;;;;;;5.18;4.32;;;;;;;14.28;78.92;96463.41;5094535;28;20399;-63
2022/05/31 01:52:32;;;;;;;4.45;3.88;;;;;;;14.27;79.39;96469.59;5094700;28;20027;-63
2022/05/31 01:54:58;;;;;;;7.95;5.22;;;;;;;14.25;79.29;96469.69;5094698;28;20027;-62
2022/05/31 01:57:25;;;;;;;8.13;4.05;;;;;;;14.28;78.03;96466.03;5094806;28;20020;-64
2022/05/31 02:00:00;;;;;;;8.27;3.38;;;;;;;14.25;77.61;96468.81;5094633;28;20020;-63
2022/05/31 02:02:26;;;;;;;4.10;3.55;;;;;;;14.23;77.38;96473.31;5094697;28;20513;-64
2022/05/31 02:04:51;;;;;;;5.38;4.50;;;;;;;14.24;77.46;96475.84;5094404;28;20054;-65
2022/05/31 02:07:23;;;;;;;5.57;4.18;;;;;;;14.29;77.65;96478.25;5094459;28;20019;-64
2022/05/31 02:09:51;;;;;;;6.90;4.00;;;;;;;14.27;77.49;96475.69;5094459;28;20114;-67
2022/05/31 02:12:19;;;;;;;7.53;4.28;;;;;;;14.25;77.33;96482.84;5094282;28;20031;-62
2022/05/31 02:14:44;;;;;;;6.88;4.22;;;;;;;14.27;76.73;96490.66;5094358;28;20084;-62
2022/05/31 02:17:11;;;;;;;9.20;4.13;;;;;;;14.26;77.05;96488.94;5094192;28;20063;-62
2022/05/31 02:19:37;;;;;;;6.38;4.00;;;;;;;14.24;77.33;96485.56;5094327;28;20570;-61
2022/05/31 02:22:08;;;;;;;5.10;4.05;;;;;;;14.20;77.92;96489.25;5094150;28;20382;-60
2022/05/31 02:24:34;;;;;;;4.43;3.85;;;;;;;14.22;77.73;96497.91;5094076;28;20046;-65
2022/05/31 02:27:01;;;;;;;5.95;3.30;;;;;;;14.25;77.20;96495.13;5094039;28;20028;-63
2022/05/31 02:29:30;;;;;;;3.95;3.65;;;;;;;14.22;76.95;96488.25;5094135;28;20470;-65
2022/05/31 02:31:58;;;;;;;4.90;4.05;;;;;;;14.19;77.14;96488.41;5094099;28;20027;-65
2022/05/31 02:34:30;;;;;;;5.32;3.92;;;;;;;14.18;77.29;96491.13;5094060;28;20466;-64
2022/05/31 02:36:57;;;;;;;5.93;3.67;;;;;;;14.16;77.34;96493.84;5094057;28;20072;-64
2022/05/31 02:39:23;;;;;;;4.65;4.10;;;;;;;14.15;77.78;96486.91;5093848;28;20020;-66
2022/05/31 02:41:50;;;;;;;5.43;3.90;;;;;;;14.14;77.63;96488.66;5093908;28;20359;-66
2022/05/31 02:44:17;;;;;;;4.85;4.18;;;;;;;14.15;77.64;96498.25;5093822;28;20373;-63
2022/05/31 02:46:44;;;;;;;5.95;4.10;;;;;;;14.18;77.75;96499.03;5093901;28;20024;-63
2022/05/31 02:49:10;;;;;;;6.85;3.80;;;;;;;14.20;77.27;96498.00;5093130;28;20107;-62
2022/05/31 02:51:38;;;;;;;5.50;3.35;;;;;;;14.18;76.74;96489.34;5093668;28;20486;-62
2022/05/31 02:54:05;;;;;;;5.53;4.47;;;;;;;14.10;79.81;96494.16;5093683;28;20024;-61
2022/05/31 02:56:32;;;;;;;5.72;4.38;;;;;;;14.12;79.32;96502.84;5093706;28;20429;-66
2022/05/31 02:58:58;;;;;;;5.20;4.50;;;;;;;14.14;79.31;96499.19;5093613;28;20032;-64
2022/05/31 03:01:26;;;;;;;4.53;4.10;;;;;;;14.12;79.26;96503.66;5093515;28;20016;-63
2022/05/31 03:03:52;;;;;;;5.03;4.05;;;;;;;14.10;78.01;96497.66;5093443;28;20363;-66
2022/05/31 03:06:19;;;;;;;8.02;4.53;;;;;;;14.08;77.62;96506.53;5093540;28;20103;-68
2022/05/31 03:08:45;;;;;;;4.35;3.75;;;;;;;14.11;78.04;96509.88;5093405;28;20016;-64
2022/05/31 03:11:40;;;;;;;5.35;4.45;;;;;;;14.15;78.62;96508.75;5093387;28;20035;-65
2022/05/31 03:14:13;;;;;;;6.25;5.03;;;;;;;14.19;78.36;96513.88;5083806;28;20439;-62
2022/05/31 03:16:41;;;;;;;5.75;3.97;;;;;;;14.20;77.57;96510.28;5093366;28;20024;-64
2022/05/31 03:19:14;;;;;;;4.47;4.03;;;;;;;14.26;77.30;96517.88;5093369;28;20023;-65
2022/05/31 03:21:45;;;;;;;5.65;4.10;;;;;;;14.33;77.57;96521.03;5093354;28;20119;-66
2022/05/31 03:24:22;;;;;;;9.30;4.63;;;;;;;14.40;78.26;96520.63;5093271;28;20035;-65
2022/05/31 03:26:53;;;;;;;8.73;4.70;;;;;;;14.47;78.21;96528.16;5093436;28;20027;-66
2022/05/31 03:29:19;;;;;;;6.00;4.20;;;;;;;14.58;77.17;96530.22;5093354;28;20076;-65
2022/05/31 03:31:45;;;;;;;4.38;3.65;;;;;;;14.69;77.45;96530.47;5093297;28;20055;-62
2022/05/31 03:34:11;;;;;;;9.07;3.97;;;;;;;14.93;77.66;96532.72;5093179;28;20047;-61
2022/05/31 03:36:36;;;;;;;5.03;3.35;;;;;;;15.22;75.69;96527.59;5093163;28;20020;-67
2022/05/31 03:39:02;;;;;;;4.20;3.58;;;;;;;15.59;75.82;96526.41;5093017;28;20108;-66
2022/05/31 03:41:32;;;;;;;7.00;3.78;;;;;;;16.01;74.80;96526.59;5093109;28;20481;-64
2022/05/31 03:43:57;;;;;;;4.57;2.70;;;;;;;16.39;72.92;96522.56;5093067;28;20525;-65
2022/05/31 03:46:24;;;;;;;4.70;3.20;;;;;;;16.73;70.62;96528.38;5093195;28;20047;-66
2022/05/31 03:48:50;;;;;;;4.72;3.10;;;;;;;17.14;70.87;96528.50;5093039;28;20359;-63
2022/05/31 03:51:16;;;;;;;5.07;3.58;;;;;;;17.55;70.50;96532.84;5092813;28;20046;-65
2022/05/31 03:53:42;;;;;;;6.90;2.53;;;;;;;17.96;68.46;96526.66;5092989;28;20026;-68
2022/05/31 03:56:09;;;;;;;4.82;2.60;;;;;;;18.33;67.03;96534.75;5092967;28;20379;-64
2022/05/31 03:58:35;;;;;;;4.85;2.53;;;;;;;18.69;65.51;96537.56;5093083;28;20082;-65
2022/05/31 04:01:01;;;;;;;4.82;3.25;;;;;;;19.03;65.39;96539.59;5096012;28;20024;-63
2022/05/31 04:03:27;;;;;;;3.40;2.35;;;;;;;19.40;63.87;96538.72;5096700;28;20470;-63
2022/05/31 04:05:54;;;;;;;4.85;2.72;;;;;;;19.76;61.73;96542.25;5096870;28;20016;-65
2022/05/31 04:08:20;;;;;;;3.45;2.20;;;;;;;19.99;60.73;96536.16;5096781;28;20024;-65
2022/05/31 04:10:47;;;;;;;5.78;2.40;;;;;;;20.21;60.14;96535.38;5096818;28;20044;-65
2022/05/31 04:13:14;;;;;;;2.60;2.33;;;;;;;20.53;60.20;96544.44;5096699;28;20027;-63
2022/05/31 04:15:40;;;;;;;4.50;2.65;;;;;;;20.72;59.76;96538.53;5096637;28;20024;-68
2022/05/31 04:18:06;;;;;;;5.85;2.47;;;;;;;21.03;59.57;96541.41;5096562;28;20016;-66
2022/05/31 04:20:33;;;;;;;3.47;2.97;;;;;;;21.39;58.64;96540.34;5096617;28;20443;-63
2022/05/31 04:25:43;;;;;;;3.13;2.72;;;;;;;21.98;57.27;96539.97;5096806;28;20063;-67
2022/05/31 04:28:09;;;;;;;4.47;2.63;;;;;;;;;;5096416;28;20069;-65
2022/05/31 04:30:36;;;;;;;3.95;2.63;;;;;;;22.49;56.32;96548.97;5096255;28;20021;-66
2022/05/31 04:33:02;;;;;;;5.40;2.78;;;;;;;22.77;55.71;96546.56;5096339;28;20103;-67
2022/05/31 04:35:28;;;;;;;9.30;2.53;;;;;;;22.98;55.04;96553.66;5096433;28;20028;-65
2022/05/31 04:37:54;;;;;;;4.53;2.88;;;;;;;23.21;54.61;96554.25;5096257;28;20039;-65
2022/05/31 04:40:19;;;;;;;6.85;2.58;;;;;;;23.38;54.79;96551.94;5096173;28;20035;-66
2022/05/31 04:42:45;;;;;;;4.30;2.53;;;;;;;23.59;55.07;96557.16;5096124;28;20496;-64
2022/05/31 04:45:11;;;;;;;5.90;2.53;;;;;;;23.94;53.63;96554.03;5096211;28;20076;-69
2022/05/31 04:47:37;;;;;;;3.17;2.45;;;;;;;24.21;53.25;96557.81;5096150;28;20458;-61
2022/05/31 04:50:03;;;;;;;3.17;2.42;;;;;;;24.50;52.77;96562.22;5095839;28;20478;-65
2022/05/31 04:52:28;;;;;;;3.08;2.60;;;;;;;24.77;51.98;96560.59;5095916;28;20062;-65
2022/05/31 04:54:54;;;;;;;5.80;2.50;;;;;;;25.05;50.20;96551.75;5095924;28;20105;-61
2022/05/31 04:57:20;;;;;;;3.30;2.50;;;;;;;25.34;51.15;96546.22;5095973;28;20492;-69
2022/05/31 04:59:46;;;;;;;4.20;1.92;;;;;;;25.63;50.81;96551.53;5095941;28;20400;-67
2022/05/31 05:02:12;;;;;;;2.13;1.92;;;;;;;25.79;50.00;96549.00;5095753;28;20057;-66
2022/05/31 05:04:38;;;;;;;7.18;2.53;;;;;;;25.97;50.03;96554.34;5095613;28;20096;-68
2022/05/31 05:07:04;;;;;;;3.75;2.55;;;;;;;26.18;50.64;96552.31;5095636;28;20141;-62
2022/05/31 05:09:30;;;;;;;4.65;2.78;;;;;;;26.40;50.14;96551.00;5095837;28;20466;-62
2022/05/31 05:11:56;;;;;;;5.00;2.40;;;;;;;26.58;49.71;96560.81;5095646;28;20024;-67
2022/05/31 05:14:22;;;;;;;8.45;2.38;;;;;;;26.70;48.71;96554.16;5095720;28;20020;-69
2022/05/31 05:16:48;;;;;;;4.60;2.22;;;;;;;26.78;47.20;96556.03;5095742;28;20027;-67
2022/05/31 05:19:16;;;;;;;4.90;2.22;;;;;;;26.86;47.15;96557.91;5095601;28;20099;-66
2022/05/31 05:21:42;;;;;;;6.57;2.47;;;;;;;27.10;46.41;96561.72;5095425;28;20103;-66
2022/05/31 05:24:08;;;;;;;6.28;2.72;;;;;;;27.31;47.29;96561.28;5095394;28;20122;-65
2022/05/31 05:26:34;;;;;;;4.28;2.78;;;;;;;27.48;46.57;96556.78;5095525;28;20071;-68
2022/05/31 05:31:44;;;;;;;6.85;2.53;;;;;;;27.88;45.84;96566.94;5095271;28;20493;-66
2022/05/31 05:34:10;;;;;;;6.55;3.03;;;;;;;28.05;44.98;96572.31;5095264;28;20032;-65
2022/05/31 05:36:35;;;;;;;2.67;2.47;;;;;;;28.16;45.95;96571.97;5095266;28;20024;-68
2022/05/31 05:39:01;;;;;;;6.25;2.67;;;;;;;28.34;45.99;96570.97;5095072;28;20509;-66
2022/05/31 05:41:29;;;;;;;3.53;2.60;;;;;;;28.35;43.94;96569.97;5094966;28;20028;-67
2022/05/31 05:43:54;;;;;;;5.68;2.90;;;;;;;28.45;43.55;96561.72;5094791;28;20462;-68
2022/05/31 05:46:25;;;;;;;5.25;2.60;;;;;;;28.62;44.04;96566.03;5094926;28;20027;-68
2022/05/31 05:48:50;;;;;;;;;;;;;;;28.85;43.34;96572.50;5095418;28;20019;-67
2022/05/31 05:51:22;;;;;;;4.82;2.80;;;;;;;29.02;43.59;96562.56;5094617;28;19922;-64
2022/05/31 05:53:48;;;;;;;4.70;3.00;;;;;;;29.36;43.58;96566.78;5094777;28;20032;-67
2022/05/31 05:56:14;;;;;;;5.00;2.90;;;;;;;29.54;42.35;96568.34;5094691;28;20061;-67
2022/05/31 05:58:41;;;;;;;6.15;2.47;;;;;;;29.75;42.04;96565.03;5094643;28;20036;-68
2022/05/31 06:01:12;;;;;;;4.85;2.80;;;;;;;29.94;40.39;96568.25;5094754;28;20076;-65
2022/05/31 06:03:42;;;;;;;5.22;3.22;;;;;;;30.12;39.99;96561.69;5094486;28;20389;-65
2022/05/31 06:06:11;;;;;;;4.13;2.78;;;;;;;30.30;40.25;96569.47;5094636;28;20036;-64
2022/05/31 06:08:43;;;;;;;10.23;3.25;;;;;;;30.24;39.90;96564.81;5094510;28;20023;-62
2022/05/31 06:11:16;;;;;;;5.60;3.00;;;;;;;30.20;39.80;96561.66;5094442;28;20054;-68
2022/05/31 06:13:45;;;;;;;4.40;2.60;;;;;;;30.42;39.26;96571.72;5094507;28;20027;-67
2022/05/31 06:16:12;;;;;;;6.18;2.42;;;;;;;30.50;38.67;96563.56;5094477;28;20020;-64
2022/05/31 06:18:44;;;;;;;8.80;2.45;;;;;;;30.57;38.29;96561.78;5094420;28;20354;-65
2022/05/31 06:21:11;;;;;;;4.10;2.25;;;;;;;30.75;38.18;96561.44;5094347;28;20020;-67
2022/05/31 06:23:38;;;;;;;10.18;3.05;;;;;;;30.87;38.50;96561.81;5093799;28;20043;-64
2022/05/31 06:26:04;;;;;;;6.50;2.67;;;;;;;31.01;38.02;96562.00;5094258;28;20032;-64
2022/05/31 06:28:30;;;;;;;6.30;2.75;;;;;;;31.09;38.62;96566.47;5094065;28;20028;-67
2022/05/31 06:30:55;;;;;;;8.80;2.80;;;;;;;31.07;38.06;96568.50;5094127;28;20061;-67
2022/05/31 06:33:21;;;;;;;5.68;2.80;;;;;;;31.15;38.22;96558.44;5094017;28;20083;-63
2022/05/31 06:35:47;;;;;;;8.85;3.15;;;;;;;31.33;37.47;96565.28;5094145;28;20024;-70
2022/05/31 06:38:16;;;;;;;12.05;3.10;;;;;;;31.36;37.09;96559.53;5093919;28;20043;-68
2022/05/31 06:40:42;;;;;;;7.70;3.22;;;;;;;31.20;37.32;96559.72;5094015;28;20028;-68
2022/05/31 06:43:08;;;;;;;5.20;2.70;;;;;;;31.28;37.36;96551.53;5093699;28;20027;-68
2022/05/31 06:45:34;;;;;;;9.20;3.15;;;;;;;31.33;36.68;96559.88;5093817;28;20032;-66
2022/05/31 06:48:00;;;;;;;8.60;3.08;;;;;;;31.24;37.99;96556.44;5093843;28;20028;-68
2022/05/31 06:50:26;;;;;;;6.07;3.22;;;;;;;31.30;37.91;96545.94;5093507;28;20080;-66
2022/05/31 06:58:21;;;;;;;7.65;2.97;;;;;;;31.26;36.43;96543.59;5093926;28;20035;-67
2022/05/31 07:00:47;;;;;;;9.98;3.47;;;;;;;31.32;36.61;96544.69;5093733;28;20119;-63
2022/05/31 07:03:12;;;;;;;6.60;3.10;;;;;;;31.39;37.26;96542.09;5093576;28;20522;-69
2022/05/31 07:05:39;;;;;;;7.55;2.63;;;;;;;31.59;35.15;96544.16;5093468;28;20478;-67
2022/05/31 07:08:04;;;;;;;16.60;3.83;;;;;;;31.75;36.43;96549.31;5093389;28;20073;-66
2022/05/31 07:10:30;;;;;;;8.60;3.20;;;;;;;31.64;36.27;96544.44;5093472;28;20024;-62
2022/05/31 07:12:56;;;;;;;6.45;3.38;;;;;;;31.45;35.75;96540.50;5093374;28;20050;-65
2022/05/31 07:15:21;;;;;;;9.48;3.45;;;;;;;31.50;36.42;96547.00;5093485;28;20117;-70
2022/05/31 07:17:47;;;;;;;6.90;3.50;;;;;;;31.32;36.42;96549.25;5093322;28;20032;-65
2022/05/31 07:20:13;;;;;;;7.20;3.20;;;;;;;31.43;37.34;96543.41;5093407;28;20512;-67
2022/05/31 07:22:39;;;;;;;5.45;3.00;;;;;;;31.57;36.07;96541.66;5093403;28;20072;-67
2022/05/31 07:25:05;;;;;;;5.47;3.10;;;;;;;31.72;36.29;96547.00;5093234;28;20031;-65
2022/05/31 07:27:32;;;;;;;4.97;3.03;;;;;;;32.07;35.58;96545.47;5093181;28;20590;-63
2022/05/31 07:29:58;;;;;;;6.88;3.25;;;;;;;32.40;35.09;96544.88;5093224;28;20024;-68
2022/05/31 07:32:24;;;;;;;6.32;2.67;;;;;;;32.63;34.42;96541.09;5093292;28;20105;-65
2022/05/31 07:34:50;;;;;;;9.90;3.00;;;;;;;32.79;34.07;96539.94;5094392;28;20074;-64
2022/05/31 07:37:15;;;;;;;8.18;2.92;;;;;;;32.89;32.66;96543.13;5097534;28;20035;-65
2022/05/31 07:39:41;;;;;;;7.18;2.95;;;;;;;33.05;34.00;96543.00;5096105;28;20355;-66
2022/05/31 07:42:07;;;;;;;7.50;3.20;;;;;;;33.21;32.80;96530.97;5097262;28;20059;-66
2022/05/31 07:44:32;;;;;;;6.45;2.60;;;;;;;33.17;32.28;96544.09;5097163;28;20062;-67
2022/05/31 07:47:02;;;;;;;6.78;2.95;;;;;;;32.78;33.08;96541.81;5097160;28;20020;-64
2022/05/31 07:49:29;;;;;;;6.22;2.50;;;;;;;32.57;34.85;96548.16;5097000;28;20058;-62
2022/05/31 07:51:54;;;;;;;4.03;2.78;;;;;;;32.60;34.22;96547.72;5097077;28;20022;-64
2022/05/31 07:54:20;;;;;;;5.40;3.13;;;;;;;32.86;34.19;96538.09;5097054;28;20024;-65
2022/05/31 07:56:47;;;;;;;9.00;2.95;;;;;;;33.11;33.45;96543.00;5097062;28;20111;-61
2022/05/31 07:59:13;;;;;;;5.53;3.15;;;;;;;33.30;34.42;96539.75;5097031;28;20073;-64
2022/05/31 08:01:39;;;;;;;7.00;3.10;;;;;;;33.17;33.28;96552.22;5097047;28;20036;-64
2022/05/31 08:04:05;;;;;;;10.30;3.10;;;;;;;33.24;32.32;96547.66;5096984;28;20038;-63
2022/05/31 08:06:32;;;;;;;7.10;2.90;;;;;;;33.38;32.93;96553.13;5096863;28;20388;-68
2022/05/31 08:08:58;;;;;;;5.97;2.72;;;;;;;33.26;32.46;96547.47;5096699;28;20037;-67
2022/05/31 08:11:27;;;;;;;9.88;2.88;;;;;;;33.41;32.62;96548.13;5096741;28;20024;-65
2022/05/31 08:13:53;;;;;;;8.70;2.72;;;;;;;33.28;31.40;96553.50;5096637;28;20378;-70
2022/05/31 08:16:23;;;;;;;8.68;3.20;;;;;;;33.17;31.82;96549.53;5096855;28;20020;-63
2022/05/31 08:18:49;;;;;;;4.45;2.92;;;;;;;33.09;30.17;96547.81;5096785;28;20032;-64
2022/05/31 08:21:19;;;;;;;6.90;3.50;;;;;;;33.12;32.04;96541.16;5096535;28;20024;-65
2022/05/31 08:23:45;;;;;;;6.88;2.97;;;;;;;33.17;32.51;96535.97;5096460;28;20029;-67
2022/05/31 08:26:11;;;;;;;4.07;2.50;;;;;;;33.10;32.87;96543.22;5096484;28;20102;-67
2022/05/31 08:28:37;;;;;;;7.10;3.25;;;;;;;33.20;32.04;96543.66;5096567;28;20020;-67
2022/05/31 08:31:09;;;;;;;5.03;2.70;;;;;;;33.30;31.06;96542.47;5096429;28;20046;-64
2022/05/31 08:33:35;;;;;;;8.13;2.38;;;;;;;33.00;30.95;96538.16;5096352;28;20032;-65
2022/05/31 08:36:01;;;;;;;5.80;2.60;;;;;;;33.14;30.08;96531.78;5096412;28;20035;-70
2022/05/31 08:38:26;;;;;;;7.35;3.10;;;;;;;33.12;30.89;96535.72;5096351;28;20021;-67
2022/05/31 08:40:58;;;;;;;7.72;2.60;;;;;;;33.15;31.07;96541.59;5096286;28;20101;-66
2022/05/31 08:43:42;;;;;;;9.00;2.30;;;;;;;33.05;30.50;96535.72;5096024;28;20090;-68
2022/05/31 08:46:16;;;;;;;5.85;2.58;;;;;;;33.19;31.07;96530.34;5095720;28;20486;-67
2022/05/31 08:49:05;;;;;;;7.95;2.67;;;;;;;33.43;31.31;96536.25;5096134;28;20397;-62
2022/05/31 08:51:54;;;;;;;5.55;2.30;;;;;;;33.39;30.82;96541.25;5095702;28;20047;-67
2022/05/31 08:57:45;;;;;;;6.43;2.55;;;;;;;33.41;29.89;96536.47;5096287;28;20248;-66
2022/05/31 09:00:24;;;;;;;5.40;2.30;;;;;;;33.53;29.75;96539.41;5095862;28;20073;-68
2022/05/31 09:03:01;;;;;;;6.95;2.50;;;;;;;33.74;28.91;96535.69;5095863;28;20028;-67
2022/05/31 09:05:41;;;;;;;5.93;2.47;;;;;;;33.49;28.40;96535.41;5095981;28;20039;-65
2022/05/31 09:08:18;;;;;;;;;;;;;;;33.31;29.50;96533.31;5096220;28;20055;-66
2022/05/31 09:11:10;;;;;;;5.45;2.55;;;;;;;33.07;30.14;96530.91;5095734;28;19912;-69
2022/05/31 09:13:54;;;;;;;5.22;2.50;;;;;;;32.64;30.64;96530.09;5087105;28;20064;-62
2022/05/31 09:16:38;;;;;;;5.68;2.38;;;;;;;32.63;32.68;96535.69;5095556;28;20081;-66
2022/05/31 09:19:07;;;;;;;9.43;2.47;;;;;;;32.70;30.01;96525.75;5095810;28;20035;-69
2022/05/31 09:21:41;;;;;;;6.25;2.47;;;;;;;32.47;30.83;96528.72;5095396;28;20024;-63
2022/05/31 09:24:15;;;;;;;6.43;2.22;;;;;;;32.35;30.69;96541.94;5095438;28;20024;-65
2022/05/31 09:26:57;;;;;;;4.30;2.22;;;;;;;32.02;27.87;96536.06;5095363;28;20028;-66
2022/05/31 09:29:44;;;;;;;9.48;2.53;;;;;;;31.87;29.09;96529.88;5095376;28;20056;-62
2022/05/31 09:32:17;;;;;;;10.82;2.50;;;;;;;31.38;29.58;96519.66;5095243;28;20111;-64
2022/05/31 09:35:20;;;;;;;6.75;2.17;;;;;;;30.94;30.80;96520.59;5095150;28;20093;-66
2022/05/31 09:38:01;;;;;;;8.73;2.30;;;;;;;30.77;29.83;96516.25;5095183;28;20028;-65
2022/05/31 09:40:44;;;;;;;6.35;2.42;;;;;;;30.84;30.11;96516.31;5095183;28;20035;-69
2022/05/31 09:43:35;;;;;;;4.85;2.00;;;;;;;30.93;31.54;96521.59;5094975;28;20093;-65
2022/05/31 09:46:12;;;;;;;8.43;2.60;;;;;;;30.73;30.96;96520.28;5066953;28;20071;-68
2022/05/31 09:48:52;;;;;;;7.57;1.98;;;;;;;30.08;32.37;96518.09;5094986;28;20102;-68
2022/05/31 09:51:36;;;;;;;;;;;;;;;30.05;32.27;96514.91;5095175;28;20044;-67
2022/05/31 09:59:32;;;;;;;8.23;2.63;;;;;;;30.69;30.47;96508.19;5094689;28;20538;-64
2022/05/31 10:02:31;;;;;;;8.57;2.58;;;;;;;30.67;30.57;96502.13;5094864;28;20380;-64
2022/05/31 10:05:15;;;;;;;6.65;2.15;;;;;;;30.80;29.58;96504.22;5094710;28;20036;-63
2022/05/31 10:07:40;;;;;;;9.32;2.45;;;;;;;30.93;30.51;96500.84;5094652;28;20031;-67
2022/05/31 10:10:15;;;;;;;11.40;2.97;;;;;;;31.12;33.28;96494.00;5094572;28;20024;-66
2022/05/31 10:12:58;;;;;;;4.07;2.70;;;;;;;31.37;35.85;96490.13;5094532;28;20032;-62
2022/05/31 10:15:45;;;;;;;7.13;3.13;;;;;;;31.28;35.51;96495.63;5094356;28;20050;-68
2022/05/31 10:18:23;;;;;;;8.68;3.13;;;;;;;30.93;34.88;96500.84;5094434;28;20071;-63
2022/05/31 10:20:56;;;;;;;7.80;3.60;;;;;;;30.61;34.18;96501.03;5094416;28;20145;-67
2022/05/31 10:23:29;;;;;;;6.13;3.17;;;;;;;30.19;36.09;96500.63;5094234;28;21114;-61
2022/05/31 10:25:57;;;;;;;7.85;3.00;;;;;;;29.93;35.29;96499.19;5094225;28;20031;-67
2022/05/31 10:28:42;;;;;;;8.15;2.97;;;;;;;29.66;35.30;96492.50;5094227;28;20103;-66
2022/05/31 10:31:28;;;;;;;8.55;3.17;;;;;;;29.44;37.35;96492.31;5094190;28;20016;-66
2022/05/31 10:33:56;;;;;;;6.13;3.30;;;;;;;29.35;38.73;96483.47;5094067;28;20028;-65
2022/05/31 10:36:28;;;;;;;7.90;3.22;;;;;;;29.49;36.86;96479.13;5093891;28;20420;-67
2022/05/31 10:38:54;;;;;;;6.68;3.33;;;;;;;29.62;36.96;96478.56;5093964;28;20473;-62
2022/05/31 10:41:29;;;;;;;14.20;3.83;;;;;;;29.64;37.21;96477.38;5093849;28;20048;-68
2022/05/31 10:44:32;;;;;;;10.55;2.90;;;;;;;29.69;38.63;96481.38;5093885;28;20123;-64
2022/05/31 10:47:12;;;;;;;10.02;3.40;;;;;;;29.71;39.30;96484.72;5061652;28;20044;-64
2022/05/31 10:49:40;;;;;;;6.95;3.05;;;;;;;29.67;39.56;96480.72;5093508;28;20040;-66
2022/05/31 10:52:19;;;;;;;12.75;3.10;;;;;;;29.67;39.05;96488.81;5093660;28;20103;-68
2022/05/31 10:54:54;;;;;;;7.90;3.30;;;;;;;29.71;39.84;96490.94;5093586;28;20032;-65
2022/05/31 10:57:45;;;;;;;7.20;3.53;;;;;;;29.80;39.93;96490.88;5093728;28;20052;-64
2022/05/31 11:00:41;;;;;;;8.27;4.30;;;;;;;29.71;40.54;96496.31;5093670;28;20107;-66
2022/05/31 11:03:34;;;;;;;11.38;3.92;;;;;;;29.67;41.56;96495.03;5092995;28;20059;-64
2022/05/31 11:06:15;;;;;;;9.07;4.13;;;;;;;29.70;43.96;96497.34;5093498;28;20069;-64
2022/05/31 11:12:24;;;;;;;9.00;3.22;;;;;;;30.20;41.38;96477.22;5093543;28;20636;-68
2022/05/31 11:14:58;;;;;;;7.50;2.95;;;;;;;30.66;40.73;96476.19;5093490;28;20020;-63
2022/05/31 11:17:34;;;;;;;3.50;3.10;;;;;;;30.93;39.32;96489.19;5093578;28;20036;-65
2022/05/31 11:20:14;;;;;;;9.48;3.85;;;;;;;31.27;38.98;96485.84;5093441;28;20359;-66
2022/05/31 11:22:56;;;;;;;6.75;3.42;;;;;;;31.41;38.53;96494.13;5093411;28;20056;-68
2022/05/31 11:25:52;;;;;;;6.53;3.22;;;;;;;31.60;35.45;96494.53;5093314;28;20496;-63
2022/05/31 11:28:24;;;;;;;6.22;3.03;;;;;;;31.65;35.85;96501.00;5093388;28;20039;-64
2022/05/31 11:31:16;;;;;;;8.43;3.10;;;;;;;31.53;36.26;96494.44;5093261;28;20051;-67
2022/05/31 11:34:02;;;;;;;9.63;3.10;;;;;;;31.49;36.17;96494.00;5093117;28;20490;-62
2022/05/31 11:37:08;;;;;;;6.50;3.28;;;;;;;31.37;36.57;96503.66;5093073;28;20085;-66
2022/05/31 11:39:44;;;;;;;7.03;3.53;;;;;;;31.05;34.94;96505.75;5093041;28;20039;-71
2022/05/31 11:42:37;;;;;;;5.93;2.35;;;;;;;30.57;33.26;96499.72;5093185;28;20115;-64
2022/05/31 11:45:06;;;;;;;6.57;2.20;;;;;;;29.85;34.86;96501.94;5092945;28;20064;-64
2022/05/31 11:47:51;;;;;;;10.23;2.78;;;;;;;28.99;35.57;96503.69;5093106;28;20024;-62
2022/05/31 11:50:31;;;;;;;11.43;2.60;;;;;;;28.42;38.96;96506.44;5092837;28;20032;-64
2022/05/31 11:53:03;;;;;;;4.13;2.10;;;;;;;27.38;39.02;96513.13;5093152;28;20119;-66
2022/05/31 11:55:52;;;;;;;7.25;3.05;;;;;;;26.43;44.01;96531.88;5092957;28;20122;-63
2022/05/31 11:58:59;;;;;;;6.03;2.58;;;;;;;25.52;46.86;96537.34;5092926;28;20046;-67
2022/05/31 12:01:32;;;;;;;8.43;2.92;;;;;;;25.11;48.03;96522.56;5079476;28;20067;-64
2022/05/31 12:04:03;;;;;;;7.80;2.83;;;;;;;24.66;48.17;96515.34;5092894;28;20474;-67
2022/05/31 12:06:36;;;;;;;12.52;3.50;;;;;;;24.36;50.59;96516.28;5092897;28;20490;-63
2022/05/31 12:09:17;;;;;;;14.30;4.03;;;;;;;23.71;54.83;96504.47;5092873;28;20032;-66
2022/05/31 12:11:53;;;;;;;12.65;5.35;;;;;;;23.34;57.78;96510.47;5093052;28;20373;-66
2022/05/31 12:14:20;;;;;;;16.98;6.85;;;;;;;23.06;60.96;96508.47;5092905;28;20028;-67
2022/05/31 12:16:47;;;;;;;22.48;6.40;;;;;;;22.43;62.54;96510.34;5092837;28;20032;-64